Time;durP1;ratioP1;P1;durP2;ratioP2;P2;SDS_P1;SDS_P2;PMS_P1;PMS_P2;Temp;Humidity;BMP_temperature;BMP_pressure;BME280_temperature;BME280_humidity;BME280_pressure;Samples;Min_cycle;Max_cycle;Signal;HPM_P1;HPM_P2
2021/12/04 00:00:13;;;;;;;2.20;1.40;;;-0.30;99.90;196.50;224877.00;;;;4979572;28;20728;-87
2021/12/04 00:02:40;;;;;;;1.53;1.23;;;-0.30;99.90;196.50;224877.00;;;;4978463;28;20198;-88
2021/12/04 00:05:08;;;;;;;1.93;1.50;;;-0.30;99.90;196.50;224877.00;;;;4978189;28;20202;-87
2021/12/04 00:07:37;;;;;;;1.67;1.30;;;-0.40;99.90;196.50;224877.00;;;;4976922;28;20672;-87
2021/12/04 00:10:05;;;;;;;2.90;1.70;;;-0.40;99.90;196.50;224877.00;;;;4961639;28;20249;-88
2021/12/04 00:12:34;;;;;;;2.60;1.50;;;-0.50;99.90;196.50;224877.00;;;;4962013;28;20194;-89
2021/12/04 00:15:03;;;;;;;2.63;1.73;;;-0.50;99.90;196.50;224877.00;;;;4960799;28;20688;-89
2021/12/04 00:17:30;;;;;;;2.90;1.60;;;-0.50;99.90;196.50;224877.00;;;;4960320;28;20198;-87
2021/12/04 00:19:57;;;;;;;4.03;1.50;;;-0.50;99.90;196.50;224877.00;;;;4977730;28;20842;-87
2021/12/04 00:22:24;;;;;;;1.40;1.30;;;-0.50;99.90;196.50;224877.00;;;;4977358;28;20206;-87
2021/12/04 00:24:51;;;;;;;2.83;1.53;;;-0.50;99.90;196.50;224877.00;;;;4977833;28;20210;-87
2021/12/04 00:27:19;;;;;;;2.77;1.83;;;-0.60;99.90;196.50;224877.00;;;;4978027;28;20198;-86
2021/12/04 00:29:46;;;;;;;2.80;1.60;;;-0.60;99.90;196.50;224877.00;;;;4961576;28;20200;-88
2021/12/04 00:32:21;;;;;;;1.77;1.57;;;-0.60;99.90;196.50;224877.00;;;;4978109;28;20193;-87
2021/12/04 00:34:54;;;;;;;2.07;1.70;;;-0.60;99.90;196.50;224877.00;;;;4958687;28;20225;-87
2021/12/04 00:50:19;;;;;;;4.03;2.40;;;-0.60;1.00;196.50;224877.00;;;;4993116;28;20198;-84
2021/12/04 01:02:25;;;;;;;3.50;2.60;;;-0.80;1.00;196.50;224877.00;;;;4902428;29;20182;-81
2021/12/04 01:07:01;;;;;;;4.63;3.23;;;-0.80;1.00;196.50;224877.00;;;;4901562;29;20242;-82
2021/12/04 01:11:55;;;;;;;6.00;3.67;;;-0.90;1.00;196.50;224877.00;;;;4881707;29;20193;-83
2021/12/04 01:14:31;;;;;;;6.43;3.83;;;-0.90;47.10;196.50;224877.00;;;;4887335;29;20540;-84
2021/12/04 01:18:16;;;;;;;7.10;4.30;;;-0.90;99.90;196.50;224877.00;;;;4918307;29;20223;-82
2021/12/04 01:34:09;;;;;;;9.43;4.47;;;-1.00;99.90;196.50;224877.00;;;;4935248;29;20204;-83
2021/12/04 01:36:37;;;;;;;8.53;5.73;;;-1.00;99.90;196.50;224877.00;;;;4910540;29;20710;-84
2021/12/04 01:39:06;;;;;;;10.03;5.30;;;-1.00;99.90;196.50;224877.00;;;;4906376;29;20203;-85
2021/12/04 01:41:34;;;;;;;10.87;6.10;;;-1.00;99.90;196.50;224877.00;;;;4921699;29;20203;-83
2021/12/04 01:44:05;;;;;;;9.67;5.73;;;-1.00;99.90;196.50;224877.00;;;;4938304;29;20247;-84
2021/12/04 01:46:34;;;;;;;9.93;6.90;;;-0.90;1.00;196.50;224877.00;;;;4964514;28;20214;-84
2021/12/04 01:49:02;;;;;;;8.57;6.10;;;-0.90;1.00;196.50;224877.00;;;;4962189;28;20224;-85
2021/12/04 01:51:29;;;;;;;7.70;5.80;;;-0.90;1.00;196.50;224877.00;;;;4945270;28;20197;-85
2021/12/04 01:53:56;;;;;;;9.60;5.77;;;-0.90;1.00;196.50;224877.00;;;;4945736;28;20225;-85
2021/12/04 01:56:28;;;;;;;11.17;7.93;;;-0.90;1.00;196.50;224877.00;;;;4945554;28;20222;-85
2021/12/04 01:58:56;;;;;;;11.00;6.80;;;-0.90;1.00;196.50;224877.00;;;;4945417;28;20539;-84
2021/12/04 02:01:23;;;;;;;8.67;6.13;;;-0.80;1.00;196.50;224877.00;;;;4945849;28;20190;-84
2021/12/04 02:03:50;;;;;;;7.73;5.70;;;-0.80;1.00;196.50;224877.00;;;;4945435;28;20214;-84
2021/12/04 02:06:18;;;;;;;8.73;6.70;;;-0.80;1.00;196.50;224877.00;;;;4961237;28;20197;-85
2021/12/04 02:08:45;;;;;;;9.67;6.70;;;-0.80;1.00;196.50;224877.00;;;;4961108;28;20198;-86
2021/12/04 02:11:13;;;;;;;7.83;6.33;;;-0.80;1.00;196.50;224877.00;;;;4961015;28;20657;-87
2021/12/04 02:13:40;;;;;;;9.87;6.30;;;-0.80;1.00;196.50;224877.00;;;;4961268;28;20550;-86
2021/12/04 02:16:19;;;;;;;10.50;6.23;;;-0.70;1.00;196.50;224877.00;;;;4961096;28;20194;-86
2021/12/04 02:18:47;;;;;;;10.60;6.40;;;-0.80;1.00;196.50;224877.00;;;;4945237;28;20712;-86
2021/12/04 02:21:14;;;;;;;9.77;6.20;;;-0.80;1.00;196.50;224877.00;;;;4944522;28;20186;-84
2021/12/04 02:23:42;;;;;;;10.07;5.53;;;-0.70;1.00;196.50;224877.00;;;;4959800;28;20226;-85
2021/12/04 02:26:13;;;;;;;7.97;5.90;;;-0.70;1.00;196.50;224877.00;;;;4944533;28;20662;-85
2021/12/04 02:28:47;;;;;;;8.40;5.77;;;-0.60;1.00;196.50;224877.00;;;;4959863;28;20270;-86
2021/12/04 02:31:17;;;;;;;8.27;5.70;;;-0.60;1.00;196.50;224877.00;;;;4944268;28;20536;-85
2021/12/04 02:33:45;;;;;;;7.00;5.30;;;-0.60;1.00;196.50;224877.00;;;;4944039;28;20536;-85
2021/12/04 02:36:14;;;;;;;6.83;5.17;;;-0.60;1.00;196.50;224877.00;;;;4976744;28;20727;-85
2021/12/04 02:38:41;;;;;;;7.23;5.90;;;-0.60;1.00;196.50;224877.00;;;;4944509;28;20249;-85
2021/12/04 02:41:09;;;;;;;7.80;4.83;;;-0.50;1.00;196.50;224877.00;;;;4943918;28;20230;-86
2021/12/04 02:43:36;;;;;;;7.20;5.10;;;-0.50;1.00;196.50;224877.00;;;;4943629;28;20214;-85
2021/12/04 02:46:04;;;;;;;7.60;5.20;;;-0.40;10.50;196.50;224877.00;;;;4943705;28;20190;-86
2021/12/04 02:48:31;;;;;;;7.27;4.77;;;-0.40;30.90;196.50;224877.00;;;;4943872;28;20206;-86
2021/12/04 02:50:59;;;;;;;7.03;5.10;;;-0.30;59.50;196.50;224877.00;;;;4928395;28;20201;-89
2021/12/04 02:53:26;;;;;;;6.27;4.87;;;-0.20;71.60;196.50;224877.00;;;;4944066;28;20191;-88
2021/12/04 02:55:53;;;;;;;7.53;5.27;;;-0.20;75.60;196.50;224877.00;;;;4960048;28;20302;-88
2021/12/04 02:58:21;;;;;;;9.20;5.33;;;-0.20;81.80;196.50;224877.00;;;;4930097;29;20565;-90
2021/12/04 03:00:50;;;;;;;8.77;4.90;;;-0.20;86.10;196.50;224877.00;;;;4939643;28;20669;-88
2021/12/04 03:03:20;;;;;;;8.57;5.37;;;-0.10;93.50;196.50;224877.00;;;;4944029;28;20270;-89
2021/12/04 03:05:51;;;;;;;5.27;3.73;;;-0.10;99.90;196.50;224877.00;;;;4959525;28;20194;-90
2021/12/04 03:08:23;;;;;;;7.27;4.87;;;-0.10;99.90;196.50;224877.00;;;;4945320;28;20230;-91
2021/12/04 03:10:52;;;;;;;5.60;4.20;;;-0.10;99.90;196.50;224877.00;;;;4930117;28;20234;-90
2021/12/04 03:13:21;;;;;;;6.90;4.57;;;-0.10;99.90;196.50;224877.00;;;;4944088;28;20261;-91
2021/12/04 03:15:57;;;;;;;6.80;4.10;;;0.00;99.90;196.50;224877.00;;;;4928954;28;20657;-91
2021/12/04 03:18:27;;;;;;;5.53;3.90;;;0.00;99.90;196.50;224877.00;;;;4943972;28;20681;-92
2021/12/04 03:20:58;;;;;;;4.73;3.70;;;0.10;99.90;196.50;224877.00;;;;4961006;28;20205;-92
2021/12/04 03:23:30;;;;;;;4.63;3.50;;;0.10;99.90;196.50;224877.00;;;;4913480;28;20206;-91
2021/12/04 03:30:11;;;;;;;5.67;3.60;;;0.10;99.90;196.50;224877.00;;;;4978442;28;20218;-93
2021/12/04 03:42:44;;;;;;;4.23;3.20;;;0.20;99.90;196.50;224877.00;;;;5034883;23;20229;-93
2021/12/04 03:45:13;;;;;;;4.30;3.20;;;0.10;99.90;196.50;224877.00;;;;4967994;28;20688;-95
2021/12/04 03:47:45;;;;;;;4.13;3.63;;;0.10;99.90;196.50;224877.00;;;;4947926;28;20668;-95
2021/12/04 03:50:14;;;;;;;8.93;4.00;;;0.20;99.90;196.50;224877.00;;;;4964330;28;20222;-95
2021/12/04 03:52:41;;;;;;;6.17;3.20;;;0.20;99.90;196.50;224877.00;;;;4979082;28;20197;-95
2021/12/04 03:55:11;;;;;;;4.63;3.60;;;0.20;99.90;196.50;224877.00;;;;4978702;28;20194;-95
2021/12/04 03:57:48;;;;;;;4.50;3.10;;;0.20;99.90;196.50;224877.00;;;;4960297;28;20202;-94
2021/12/04 05:14:36;;;;;;;2.03;1.00;;;1.20;1.00;196.50;224877.00;;;;4978763;28;20592;-90
2021/12/04 05:17:29;;;;;;;1.10;1.00;;;1.20;1.00;196.50;224877.00;;;;4965038;28;20205;-89
2021/12/04 05:19:57;;;;;;;1.20;1.10;;;1.30;1.00;196.50;224877.00;;;;4998773;28;20194;-93
2021/12/04 05:22:43;;;;;;;1.20;1.00;;;1.30;1.00;196.50;224877.00;;;;4998781;28;20560;-91
2021/12/04 05:25:10;;;;;;;0.90;0.80;;;1.40;1.00;196.50;224877.00;;;;4972044;28;20206;-94
2021/12/04 05:27:38;;;;;;;1.10;1.00;;;1.40;1.00;196.50;224877.00;;;;4967309;28;20205;-92
2021/12/04 05:30:06;;;;;;;1.07;0.97;;;1.40;1.00;196.50;224877.00;;;;4947075;28;20680;-92
2021/12/04 05:32:33;;;;;;;1.83;1.00;;;1.40;1.00;196.50;224877.00;;;;4947054;28;20205;-91
2021/12/04 05:35:01;;;;;;;0.97;0.87;;;1.40;1.00;196.50;224877.00;;;;4953031;29;20223;-94
2021/12/04 05:37:28;;;;;;;1.00;0.87;;;1.50;1.00;196.50;224877.00;;;;4911665;29;20222;-92
2021/12/04 05:39:55;;;;;;;1.67;1.00;;;1.50;1.00;196.50;224877.00;;;;4926973;29;20207;-95
2021/12/04 05:42:22;;;;;;;1.00;0.90;;;1.50;1.00;196.50;224877.00;;;;4965299;28;20201;-93
2021/12/04 05:44:49;;;;;;;1.27;0.90;;;1.60;1.00;196.50;224877.00;;;;4959829;28;20674;-93
2021/12/04 05:47:24;;;;;;;0.67;0.63;;;1.60;1.00;196.50;224877.00;;;;4943017;29;20198;-90
2021/12/04 05:55:11;;;;;;;0.77;0.73;;;1.70;1.00;196.50;224877.00;;;;4959713;29;20195;-91
2021/12/04 05:57:38;;;;;;;0.63;0.53;;;1.70;1.00;196.50;224877.00;;;;4942584;29;20207;-89
2021/12/04 06:00:19;;;;;;;1.03;0.77;;;1.70;1.00;196.50;224877.00;;;;4942717;29;20234;-88
2021/12/04 06:02:46;;;;;;;0.77;0.50;;;1.70;1.00;196.50;224877.00;;;;4942154;29;20210;-90
2021/12/04 06:05:15;;;;;;;0.50;0.50;;;1.80;1.00;196.50;224877.00;;;;4942376;29;20229;-91
2021/12/04 06:07:42;;;;;;;0.63;0.60;;;1.80;1.00;196.50;224877.00;;;;4941623;29;20230;-91
2021/12/04 06:10:10;;;;;;;0.50;0.47;;;1.90;1.00;196.50;224877.00;;;;4947682;28;20214;-88
2021/12/04 06:12:37;;;;;;;0.30;0.30;;;1.90;1.00;196.50;224877.00;;;;4953506;28;20205;-88
2021/12/04 06:15:06;;;;;;;0.60;0.53;;;1.90;1.00;196.50;224877.00;;;;4943089;28;20192;-90
2021/12/04 06:17:33;;;;;;;0.50;0.50;;;1.90;1.00;196.50;224877.00;;;;4956302;29;20199;-88
2021/12/04 06:22:45;;;;;;;0.40;0.40;;;1.90;1.00;196.50;224877.00;;;;4963685;28;20205;-87
2021/12/04 06:25:20;;;;;;;0.57;0.40;;;1.90;1.00;196.50;224877.00;;;;4940902;29;20238;-91
2021/12/04 06:27:47;;;;;;;0.73;0.70;;;2.00;1.00;196.50;224877.00;;;;4941429;29;20577;-90
2021/12/04 06:30:21;;;;;;;1.03;0.70;;;2.00;1.00;196.50;224877.00;;;;4954606;28;20551;-89
2021/12/04 06:32:50;;;;;;;0.93;0.60;;;2.00;1.00;196.50;224877.00;;;;4941344;29;20209;-90
2021/12/04 06:35:20;;;;;;;0.60;0.60;;;2.00;1.00;196.50;224877.00;;;;4954839;28;20686;-89
2021/12/04 06:37:49;;;;;;;0.87;0.60;;;2.10;1.00;196.50;224877.00;;;;4941916;29;20207;-89
2021/12/04 06:40:19;;;;;;;0.50;0.43;;;2.10;1.00;196.50;224877.00;;;;4942404;29;20215;-90
2021/12/04 06:42:46;;;;;;;0.57;0.57;;;2.10;1.00;196.50;224877.00;;;;4942064;29;20737;-89
2021/12/04 06:45:14;;;;;;;0.50;0.50;;;2.10;1.00;196.50;224877.00;;;;4958880;29;20223;-90
2021/12/04 06:47:48;;;;;;;0.43;0.40;;;2.10;1.00;196.50;224877.00;;;;4959040;29;20205;-92
2021/12/04 06:50:24;;;;;;;0.30;0.30;;;2.20;1.00;196.50;224877.00;;;;4943346;29;20192;-89
2021/12/04 06:52:52;;;;;;;0.47;0.47;;;2.20;1.00;196.50;224877.00;;;;4943192;29;20381;-91
2021/12/04 06:55:26;;;;;;;0.50;0.50;;;2.30;1.00;196.50;224877.00;;;;4943677;28;20203;-88
2021/12/04 06:57:55;;;;;;;0.97;0.50;;;2.30;1.00;196.50;224877.00;;;;4945262;28;20720;-87
2021/12/04 07:00:25;;;;;;;1.00;0.50;;;2.30;1.00;196.50;224877.00;;;;4945923;28;20206;-88
2021/12/04 07:02:52;;;;;;;0.30;0.30;;;2.20;1.00;196.50;224877.00;;;;4946673;28;20290;-88
2021/12/04 07:05:22;;;;;;;0.50;0.50;;;2.20;1.00;196.50;224877.00;;;;4946637;28;20237;-87
2021/12/04 07:07:49;;;;;;;0.50;0.50;;;2.20;1.00;196.50;224877.00;;;;4977948;28;20760;-90
2021/12/04 07:10:17;;;;;;;0.30;0.30;;;2.20;1.00;196.50;224877.00;;;;4945476;28;20187;-87
2021/12/04 07:12:44;;;;;;;2.70;0.47;;;2.30;1.00;196.50;224877.00;;;;4960333;28;20211;-88
2021/12/04 07:15:12;;;;;;;0.60;0.50;;;2.30;1.00;196.50;224877.00;;;;4976225;28;20202;-87
2021/12/04 07:17:40;;;;;;;0.50;0.50;;;2.30;1.00;196.50;224877.00;;;;4976029;28;20241;-91
2021/12/04 07:20:09;;;;;;;0.40;0.40;;;2.30;1.00;196.50;224877.00;;;;4960522;28;20234;-89
2021/12/04 07:22:37;;;;;;;1.07;0.40;;;2.40;1.00;196.50;224877.00;;;;4977412;28;20202;-91
2021/12/04 07:25:05;;;;;;;3.37;0.50;;;2.40;1.00;196.50;224877.00;;;;4962093;28;20222;-91
2021/12/04 07:27:33;;;;;;;1.07;0.50;;;2.40;1.00;196.50;224877.00;;;;4962134;28;20666;-91
2021/12/04 07:30:01;;;;;;;0.50;0.40;;;2.40;1.00;196.50;224877.00;;;;4977538;28;20190;-94
2021/12/04 07:32:28;;;;;;;1.43;0.80;;;2.50;1.00;196.50;224877.00;;;;4961807;28;20205;-92
2021/12/04 07:34:56;;;;;;;1.17;1.07;;;2.60;1.00;196.50;224877.00;;;;4961763;28;20222;-91
2021/12/04 07:37:23;;;;;;;1.83;1.23;;;2.60;1.00;196.50;224877.00;;;;4977293;28;20201;-91
2021/12/04 07:39:51;;;;;;;1.10;1.00;;;2.70;1.00;196.50;224877.00;;;;4974899;28;20198;-89
2021/12/04 07:42:19;;;;;;;1.20;0.77;;;2.70;1.00;196.50;224877.00;;;;4960389;28;20200;-89
2021/12/04 07:44:47;;;;;;;2.40;1.20;;;2.70;1.00;196.50;224877.00;;;;4959807;28;20215;-89
2021/12/04 07:47:15;;;;;;;2.00;1.00;;;2.70;1.00;196.50;224877.00;;;;4958883;28;20238;-91
2021/12/04 07:49:43;;;;;;;0.70;0.70;;;2.80;1.00;196.50;224877.00;;;;4953815;28;20202;-87
2021/12/04 07:52:11;;;;;;;0.60;0.50;;;2.80;1.00;196.50;224877.00;;;;4969463;28;20198;-85
2021/12/04 07:54:44;;;;;;;0.80;0.50;;;2.90;1.00;196.50;224877.00;;;;4974922;28;20249;-91
2021/12/04 07:57:12;;;;;;;0.20;0.20;;;2.90;1.00;196.50;224877.00;;;;4960036;28;20195;-88
2021/12/04 07:59:41;;;;;;;0.20;0.20;;;3.10;1.00;196.50;224877.00;;;;4941985;28;20206;-88
2021/12/04 08:02:09;;;;;;;0.30;0.30;;;3.20;1.00;196.50;224877.00;;;;4973770;28;20202;-87
2021/12/04 08:04:37;;;;;;;0.40;0.40;;;3.20;4.10;196.50;224877.00;;;;4974362;28;20216;-88
2021/12/04 08:07:04;;;;;;;0.50;0.43;;;3.20;1.00;196.50;224877.00;;;;4959205;28;20246;-87
2021/12/04 08:09:32;;;;;;;0.90;0.57;;;3.30;4.20;196.50;224877.00;;;;4961789;28;20183;-88
2021/12/04 08:11:59;;;;;;;0.60;0.50;;;3.40;7.60;196.50;224877.00;;;;4916771;28;1233285;-88
2021/12/04 08:14:26;;;;;;;0.47;0.40;;;3.40;9.10;196.50;224877.00;;;;4974831;28;20548;-88
2021/12/04 08:16:54;;;;;;;0.37;0.37;;;3.40;16.50;196.50;224877.00;;;;4956385;28;20206;-87
2021/12/04 08:19:21;;;;;;;0.40;0.40;;;3.50;25.90;196.50;224877.00;;;;4927964;28;20565;-89
2021/12/04 08:21:49;;;;;;;0.63;0.30;;;3.50;30.10;196.50;224877.00;;;;4943685;28;20202;-88
2021/12/04 08:24:16;;;;;;;0.40;0.30;;;3.60;38.50;196.50;224877.00;;;;4943592;28;20205;-90
2021/12/04 08:26:44;;;;;;;1.00;0.40;;;3.60;42.70;196.50;224877.00;;;;4950222;29;20636;-87
2021/12/04 08:29:12;;;;;;;2.50;0.30;;;3.70;39.90;196.50;224877.00;;;;4948101;28;20213;-87
2021/12/04 08:31:40;;;;;;;0.20;0.20;;;3.70;39.10;196.50;224877.00;;;;4958818;28;20199;-87
2021/12/04 08:34:07;;;;;;;0.30;0.20;;;3.70;38.70;196.50;224877.00;;;;4975206;28;20214;-86
2021/12/04 08:36:35;;;;;;;0.30;0.30;;;3.70;42.00;196.50;224877.00;;;;4975691;28;20203;-86
2021/12/04 08:39:05;;;;;;;0.30;0.30;;;3.80;43.80;196.50;224877.00;;;;4975318;28;20230;-90
2021/12/04 08:41:33;;;;;;;1.43;1.33;;;3.80;44.70;196.50;224877.00;;;;4958972;28;20194;-90
2021/12/04 08:44:01;;;;;;;4.83;3.83;;;3.90;48.30;196.50;224877.00;;;;4976716;28;20681;-88
2021/12/04 08:46:28;;;;;;;1.37;1.27;;;3.90;48.20;196.50;224877.00;;;;4975396;28;20596;-88
2021/12/04 08:48:59;;;;;;;2.83;2.13;;;4.00;41.90;196.50;224877.00;;;;4975883;28;20195;-94
2021/12/04 08:51:33;;;;;;;1.20;1.10;;;4.00;37.00;196.50;224877.00;;;;4960334;28;20195;-85
2021/12/04 08:54:02;;;;;;;1.80;1.50;;;4.00;41.40;196.50;224877.00;;;;4976998;28;20684;-87
2021/12/04 08:56:32;;;;;;;1.33;1.23;;;4.10;52.90;196.50;224877.00;;;;4976250;28;20740;-87
2021/12/04 08:59:03;;;;;;;1.13;1.03;;;4.20;57.80;196.50;224877.00;;;;4976440;28;20537;-87
2021/12/04 09:01:38;;;;;;;2.13;1.80;;;4.20;59.40;196.50;224877.00;;;;4976655;28;20254;-88
2021/12/04 09:04:25;;;;;;;4.73;3.80;;;4.30;58.60;196.50;224877.00;;;;4974420;28;20282;-88
2021/12/04 09:06:55;;;;;;;4.73;4.30;;;4.40;61.90;196.50;224877.00;;;;4957296;28;20701;-87
2021/12/04 09:09:23;;;;;;;4.97;2.27;;;4.40;50.30;196.50;224877.00;;;;4955472;29;20201;-86
2021/12/04 09:12:14;;;;;;;2.57;2.33;;;4.40;66.60;196.50;224877.00;;;;4940289;29;20666;-85
2021/12/04 09:14:44;;;;;;;2.10;1.90;;;4.50;38.70;196.50;224877.00;;;;4941632;28;20711;-87
2021/12/04 09:17:16;;;;;;;1.03;0.93;;;4.50;35.20;196.50;224877.00;;;;4940422;28;20226;-89
2021/12/04 09:19:45;;;;;;;1.00;0.83;;;4.60;41.70;196.50;224877.00;;;;4955429;29;20214;-88
2021/12/04 09:22:28;;;;;;;0.43;0.43;;;4.60;19.20;196.50;224877.00;;;;4942148;28;20195;-88
2021/12/04 09:25:30;;;;;;;1.23;1.13;;;4.60;19.40;196.50;224877.00;;;;4959527;28;20684;-86
2021/12/04 10:17:38;;;;;;;0.23;0.23;;;5.70;1.00;196.50;224877.00;;;;4903633;29;20185;-92
2021/12/04 10:34:51;;;;;;;0.67;0.40;;;5.90;1.00;196.50;224877.00;;;;4884442;29;20323;-92
2021/12/04 10:37:54;;;;;;;0.30;0.27;;;6.00;1.00;196.50;224877.00;;;;4907807;29;20521;-89
2021/12/04 10:40:43;;;;;;;0.30;0.30;;;6.00;1.00;196.50;224877.00;;;;4902320;29;20242;-89
2021/12/04 10:51:32;;;;;;;7.53;3.37;;;6.00;1.00;196.50;224877.00;;;;4941543;29;20188;-92
2021/12/04 10:54:52;;;;;;;37.37;18.57;;;6.10;1.00;196.50;224877.00;;;;4893008;29;20212;-93
2021/12/04 11:00:40;;;;;;;0.80;0.80;;;6.20;1.00;196.50;224877.00;;;;4901196;29;20204;-92
2021/12/04 11:07:34;;;;;;;0.70;0.70;;;6.20;1.00;196.50;224877.00;;;;4958166;29;20222;-92
2021/12/04 11:28:45;;;;;;;0.67;0.20;;;6.70;1.00;196.50;224877.00;;;;4979482;28;20198;-88
2021/12/04 11:39:40;;;;;;;0.83;0.40;;;6.60;99.90;196.50;224877.00;;;;4962948;28;20194;-94
2021/12/04 11:42:23;;;;;;;0.30;0.30;;;6.60;99.90;196.50;224877.00;;;;4961563;28;20206;-90
2021/12/04 11:45:19;;;;;;;1.47;1.37;;;6.70;99.90;196.50;224877.00;;;;4975003;28;20203;-93
2021/12/04 11:47:54;;;;;;;4.20;2.37;;;6.70;99.90;196.50;224877.00;;;;4942499;29;20254;-91
2021/12/04 11:50:32;;;;;;;3.97;2.27;;;6.70;99.90;196.50;224877.00;;;;4959335;28;20210;-92
2021/12/04 11:53:06;;;;;;;1.73;1.33;;;6.80;99.90;196.50;224877.00;;;;4958771;29;20187;-91
2021/12/04 11:55:44;;;;;;;5.20;3.60;;;6.80;99.90;196.50;224877.00;;;;4957733;28;20199;-90
2021/12/04 11:58:33;;;;;;;5.50;4.10;;;6.80;99.90;196.50;224877.00;;;;4959087;28;20245;-88
2021/12/04 12:01:09;;;;;;;1.43;1.27;;;6.80;99.90;196.50;224877.00;;;;4959958;28;20229;-88
2021/12/04 12:03:37;;;;;;;1.23;1.13;;;6.80;99.90;196.50;224877.00;;;;4959158;28;20677;-89
2021/12/04 12:06:11;;;;;;;0.83;0.83;;;6.70;99.90;196.50;224877.00;;;;4942363;28;20218;-88
2021/12/04 12:08:42;;;;;;;2.60;1.70;;;6.70;99.90;196.50;224877.00;;;;4959699;28;20194;-89
2021/12/04 12:11:28;;;;;;;0.57;0.57;;;6.70;99.90;196.50;224877.00;;;;4966358;28;20869;-89
2021/12/04 12:14:08;;;;;;;0.40;0.40;;;6.70;99.90;196.50;224877.00;;;;4955652;29;20715;-91
2021/12/04 12:16:52;;;;;;;0.97;0.70;;;6.70;99.90;196.50;224877.00;;;;4943595;28;20210;-91
2021/12/04 12:19:40;;;;;;;0.33;0.33;;;6.70;99.90;196.50;224877.00;;;;4960087;28;20783;-88
2021/12/04 12:22:50;;;;;;;1.07;1.03;;;6.70;99.90;196.50;224877.00;;;;4944430;28;20203;-88
2021/12/04 12:32:13;;;;;;;1.20;0.70;;;6.70;99.90;196.50;224877.00;;;;4948544;29;20555;-89
2021/12/04 12:37:25;;;;;;;1.00;0.60;;;6.70;1.00;196.50;224877.00;;;;4957033;28;20609;-92
2021/12/04 12:40:10;;;;;;;0.50;0.50;;;6.80;1.00;196.50;224877.00;;;;4976179;28;20197;-90
2021/12/04 12:42:41;;;;;;;0.70;0.50;;;6.80;1.00;196.50;224877.00;;;;4976522;28;20225;-89
2021/12/04 12:45:17;;;;;;;0.70;0.70;;;6.90;1.00;196.50;224877.00;;;;4976534;28;20665;-88
2021/12/04 12:48:08;;;;;;;0.40;0.40;;;6.90;1.00;196.50;224877.00;;;;4971051;28;20234;-88
2021/12/04 12:50:46;;;;;;;0.70;0.70;;;6.90;1.00;196.50;224877.00;;;;4973261;28;20547;-91
2021/12/04 12:53:27;;;;;;;0.70;0.67;;;7.00;1.00;196.50;224877.00;;;;4976703;28;20210;-92
2021/12/04 12:56:16;;;;;;;2.50;1.30;;;6.90;99.90;196.50;224877.00;;;;4946417;28;20199;-91
2021/12/04 12:59:19;;;;;;;0.50;0.50;;;6.90;99.90;196.50;224877.00;;;;4976394;28;20373;-92
2021/12/04 13:13:43;;;;;;;1.93;1.37;;;6.70;99.90;196.50;224877.00;;;;4941570;29;20301;-91
2021/12/04 13:16:21;;;;;;;0.67;0.60;;;6.60;99.90;196.50;224877.00;;;;4938327;29;20724;-90
2021/12/04 13:19:02;;;;;;;2.73;1.77;;;6.60;99.90;196.50;224877.00;;;;4944652;29;20635;-95
2021/12/04 13:21:38;;;;;;;9.70;5.37;;;6.50;99.90;196.50;224877.00;;;;4952189;28;20604;-90
2021/12/04 13:24:12;;;;;;;5.37;3.17;;;6.50;99.90;196.50;224877.00;;;;4943115;28;20197;-89
2021/12/04 13:26:53;;;;;;;20.73;12.00;;;6.40;99.90;196.50;224877.00;;;;4961342;28;20222;-89
2021/12/04 13:29:26;;;;;;;0.83;0.80;;;6.40;99.90;196.50;224877.00;;;;4960766;28;20648;-89
2021/12/04 13:31:58;;;;;;;1.83;1.57;;;6.30;1.00;196.50;224877.00;;;;4960624;28;20714;-92
2021/12/04 13:34:30;;;;;;;8.47;5.97;;;6.30;1.00;196.50;224877.00;;;;4946021;28;20242;-91
2021/12/04 13:37:02;;;;;;;5.73;4.03;;;6.40;1.00;196.50;224877.00;;;;4964215;28;20285;-90
2021/12/04 13:39:32;;;;;;;6.00;1.90;;;6.40;1.00;196.50;224877.00;;;;4933897;29;20203;-88
2021/12/04 13:42:04;;;;;;;3.70;2.77;;;6.40;1.00;196.50;224877.00;;;;4948779;29;20620;-92
2021/12/04 13:44:37;;;;;;;0.20;0.20;;;6.40;1.00;196.50;224877.00;;;;4951950;28;20201;-90
2021/12/04 13:47:12;;;;;;;2.33;1.87;;;6.30;1.00;196.50;224877.00;;;;4974430;28;20274;-89
2021/12/04 13:50:00;;;;;;;1.47;1.37;;;6.30;1.00;196.50;224877.00;;;;4943506;29;20191;-89
2021/12/04 13:52:32;;;;;;;3.03;2.63;;;6.30;1.00;196.50;224877.00;;;;4928249;29;20250;-91
2021/12/04 13:55:10;;;;;;;2.23;2.03;;;6.20;1.00;196.50;224877.00;;;;4943394;29;20204;-88
2021/12/04 13:57:44;;;;;;;1.97;1.77;;;6.30;1.00;196.50;224877.00;;;;4929401;29;20203;-92
2021/12/04 14:00:15;;;;;;;0.70;0.70;;;6.30;1.00;196.50;224877.00;;;;4915147;28;20227;-87
2021/12/04 14:02:49;;;;;;;1.90;1.70;;;6.30;1.00;196.50;224877.00;;;;4956597;29;20198;-89
2021/12/04 14:05:22;;;;;;;0.40;0.40;;;6.30;1.00;196.50;224877.00;;;;4934520;28;20191;-89
2021/12/04 14:08:00;;;;;;;1.67;1.50;;;6.20;1.00;196.50;224877.00;;;;4954511;28;20282;-87
2021/12/04 14:10:37;;;;;;;35.13;13.07;;;6.20;1.00;196.50;224877.00;;;;4957520;28;20556;-88
2021/12/04 14:13:05;;;;;;;10.97;4.17;;;6.20;1.00;196.50;224877.00;;;;4945520;28;20289;-89
2021/12/04 14:15:36;;;;;;;24.93;8.83;;;6.20;1.00;196.50;224877.00;;;;4961972;28;20596;-88
2021/12/04 14:18:08;;;;;;;19.83;7.73;;;6.20;1.00;196.50;224877.00;;;;4966135;28;20267;-87
2021/12/04 14:20:41;;;;;;;11.33;4.87;;;6.20;1.00;196.50;224877.00;;;;4961944;28;20301;-89
2021/12/04 14:23:10;;;;;;;97.10;38.27;;;6.20;1.00;196.50;224877.00;;;;4968452;28;20627;-87
2021/12/04 14:25:44;;;;;;;8.17;3.43;;;6.20;1.00;196.50;224877.00;;;;4962614;28;20199;-89
2021/12/04 14:28:18;;;;;;;10.10;7.23;;;6.10;1.00;196.50;224877.00;;;;4978189;28;20265;-90
2021/12/04 14:30:49;;;;;;;2.33;1.50;;;6.10;1.00;196.50;224877.00;;;;4962240;28;20199;-90
2021/12/04 14:33:22;;;;;;;2.90;0.60;;;6.20;1.00;196.50;224877.00;;;;4932372;28;20214;-94
2021/12/04 14:35:55;;;;;;;0.40;0.37;;;6.20;1.00;196.50;224877.00;;;;4965108;28;20317;-91
2021/12/04 14:38:27;;;;;;;0.70;0.70;;;6.30;1.00;196.50;224877.00;;;;4961363;29;20192;-89
2021/12/04 14:41:05;;;;;;;1.60;0.63;;;6.30;1.00;196.50;224877.00;;;;4962902;28;20241;-90
2021/12/04 14:43:39;;;;;;;1.40;0.80;;;6.30;1.00;196.50;224877.00;;;;4962031;28;20202;-90
2021/12/04 14:46:12;;;;;;;2.93;2.17;;;6.30;1.00;196.50;224877.00;;;;4976630;28;20233;-88
2021/12/04 14:48:45;;;;;;;0.20;0.20;;;6.30;1.00;196.50;224877.00;;;;4963094;28;20203;-91
2021/12/04 14:51:20;;;;;;;0.77;0.60;;;6.30;1.00;196.50;224877.00;;;;4979884;28;20206;-91
2021/12/04 14:53:55;;;;;;;0.20;0.20;;;6.40;1.00;196.50;224877.00;;;;4980256;28;20198;-92
2021/12/04 14:56:27;;;;;;;0.20;0.20;;;6.40;1.00;196.50;224877.00;;;;4959682;29;20199;-89
2021/12/04 14:58:59;;;;;;;0.57;0.17;;;6.40;1.00;196.50;224877.00;;;;4928428;29;20209;-89
2021/12/04 15:01:33;;;;;;;0.27;0.27;;;6.30;1.00;196.50;224877.00;;;;4946213;28;20653;-91
2021/12/04 15:04:04;;;;;;;0.20;0.10;;;6.20;1.00;196.50;224877.00;;;;4962580;28;20426;-90
2021/12/04 15:06:37;;;;;;;0.27;0.20;;;6.20;1.00;196.50;224877.00;;;;4959531;28;20282;-89
2021/12/04 15:09:15;;;;;;;0.47;0.47;;;6.10;99.90;196.50;224877.00;;;;4926263;29;20194;-90
2021/12/04 15:11:49;;;;;;;0.13;0.13;;;6.10;99.90;196.50;224877.00;;;;4942979;29;20266;-91
2021/12/04 15:14:33;;;;;;;0.10;0.10;;;6.00;99.90;196.50;224877.00;;;;4940723;28;20207;-90
2021/12/04 15:17:13;;;;;;;1.27;0.90;;;6.00;99.90;196.50;224877.00;;;;4959757;28;20254;-90
2021/12/04 15:19:46;;;;;;;0.80;0.33;;;5.90;99.90;196.50;224877.00;;;;4946513;28;20223;-94
2021/12/04 15:22:44;;;;;;;0.57;0.20;;;5.90;99.90;196.50;224877.00;;;;4979879;28;20226;-93
2021/12/04 15:25:21;;;;;;;0.57;0.57;;;5.80;99.90;196.50;224877.00;;;;4949459;28;20281;-92
2021/12/04 15:27:51;;;;;;;0.40;0.40;;;5.80;99.90;196.50;224877.00;;;;4961336;28;20574;-91
2021/12/04 15:30:19;;;;;;;0.43;0.43;;;5.70;99.90;196.50;224877.00;;;;4941820;28;20187;-90
2021/12/04 15:32:51;;;;;;;0.50;0.50;;;5.80;99.90;196.50;224877.00;;;;4927121;29;20203;-93
2021/12/04 15:35:33;;;;;;;0.90;0.33;;;5.80;99.90;196.50;224877.00;;;;4954038;28;20226;-93
2021/12/04 15:38:08;;;;;;;1.70;1.50;;;5.80;99.90;196.50;224877.00;;;;4956105;28;20611;-87